< Typhoon 202008 2020 Season Typhoon 202010 >
Typhoon 202009 (MAYSAK)
General InformationDetailed Track InformationTrack Information on Google MapsForecast History on Google MapsAccess Analytics MapList of All Images || NewsDisaster Info.WeblogTrackbackTyphoon FrontTwiphoonTyphoon Now!Typhoon ImaginationJMA Disaster Info. XMLResourceGoogle EarthGE AnimationAtom FeedGeoJSON
Detalied Best Track Wind (Time Zone = UTC)
Year Month Day Hour Lat. Long. Wind (kt) Gust (kt) Direc. of Major Storm Axis Radius of Major Storm Axis (nm) Radius of Minor Storm Axis (nm) Direc. of Major Gale Axis Radius of Major Gale Axis (nm) Radius of Minor Gale Axis (nm) Image
2020 8 27 18 16.8 131.8 30 45 - - - - - - Image
2020 8 27 21 17.2 131.5 30 45 - - - - - - Image
2020 8 28 00 17.4 131.1 30 45 - - - - - - Image
2020 8 28 03 17.4 130.7 30 45 - - - - - - Image
2020 8 28 06 17.2 130.2 35 50 - - - SW 150 90 Image
2020 8 28 09 17.2 130.0 35 50 - - - SW 150 90 Image
2020 8 28 12 16.7 130.0 40 60 - - - SW 150 90 Image
2020 8 28 15 16.7 129.6 40 60 - - - SW 180 90 Image
2020 8 28 18 16.6 129.6 50 70 - - - SW 180 90 Image
2020 8 28 21 16.6 129.3 50 70 - - - SW 180 90 Image
2020 8 29 00 16.5 129.6 55 80 symmetric 30 30 SW 180 90 Image
2020 8 29 03 16.4 129.7 55 80 symmetric 30 30 W 240 150 Image
2020 8 29 06 16.8 129.4 55 80 symmetric 30 30 W 240 150 Image
2020 8 29 09 17.0 129.0 55 80 symmetric 30 30 W 240 150 Image
2020 8 29 12 17.0 129.0 65 95 symmetric 30 30 symmetric 240 240 Image
2020 8 29 15 17.0 128.8 65 95 symmetric 30 30 symmetric 240 240 Image
2020 8 29 18 17.1 129.0 70 100 symmetric 50 50 symmetric 240 240 Image
2020 8 29 21 17.1 128.9 70 100 symmetric 50 50 symmetric 240 240 Image
2020 8 30 00 17.2 129.0 75 105 symmetric 50 50 symmetric 240 240 Image
2020 8 30 03 17.8 129.1 75 105 symmetric 50 50 symmetric 240 240 Image
2020 8 30 06 18.4 128.9 75 105 symmetric 50 50 S 260 240 Image
2020 8 30 09 18.9 128.9 75 105 symmetric 50 50 S 260 240 Image
2020 8 30 12 19.1 129.0 75 105 symmetric 50 50 S 260 240 Image
2020 8 30 15 19.8 129.0 80 115 symmetric 80 80 S 300 240 Image
2020 8 30 18 20.7 128.9 80 115 symmetric 80 80 S 300 240 Image
2020 8 30 21 21.6 128.9 80 115 symmetric 80 80 S 300 240 Image
2020 8 31 00 22.4 128.4 80 115 symmetric 80 80 S 300 240 Image
2020 8 31 03 23.1 128.2 80 115 symmetric 80 80 E 300 240 Image
2020 8 31 06 24.2 127.6 80 115 symmetric 80 80 E 300 240 Image
2020 8 31 09 24.6 127.2 80 115 symmetric 80 80 E 300 240 Image
2020 8 31 12 25.0 127.2 85 120 symmetric 100 100 E 300 240 Image
2020 8 31 15 25.6 126.8 85 120 symmetric 100 100 E 300 240 Image
2020 8 31 18 26.0 126.5 90 130 symmetric 100 100 E 300 240 Image
2020 8 31 21 26.5 126.2 90 130 symmetric 100 100 E 300 240 Image
2020 9 1 00 26.9 125.9 95 135 symmetric 110 110 E 300 240 Image
2020 9 1 03 27.3 125.9 95 135 symmetric 110 110 E 270 210 Image
2020 9 1 06 27.6 126.1 95 135 symmetric 110 110 E 270 210 Image
2020 9 1 09 28.1 126.2 95 135 symmetric 110 110 symmetric 240 240 Image
2020 9 1 12 28.4 126.3 95 135 symmetric 110 110 symmetric 240 240 Image
2020 9 1 15 28.9 126.5 95 135 symmetric 110 110 symmetric 240 240 Image
2020 9 1 18 29.4 126.6 90 130 symmetric 110 110 E 270 240 Image
2020 9 1 21 30.1 126.6 90 130 symmetric 110 110 E 270 240 Image
2020 9 2 00 30.5 126.7 90 130 symmetric 110 110 symmetric 270 270 Image
2020 9 2 03 31.2 126.9 90 130 symmetric 110 110 symmetric 270 270 Image
2020 9 2 06 32.1 127.3 85 120 symmetric 110 110 symmetric 270 270 Image
2020 9 2 09 32.6 127.7 85 120 symmetric 120 120 symmetric 270 270 Image
2020 9 2 12 33.2 127.9 85 120 symmetric 120 120 symmetric 270 270 Image
2020 9 2 15 34.0 128.4 85 120 symmetric 120 120 symmetric 270 270 Image
2020 9 2 18 35.5 128.8 80 115 symmetric 120 120 symmetric 270 270 Image
2020 9 2 21 37.0 129.4 80 115 symmetric 120 120 symmetric 270 270 Image
2020 9 3 00 38.8 129.7 70 100 symmetric 90 90 symmetric 270 270 Image
2020 9 3 03 40.5 129.6 65 95 symmetric 90 90 symmetric 325 325 Image
2020 9 3 06 42.0 129.0 50 0 - - - SE 300 200 Image
Japan Meteorological Agency Best Track Data | Correction Date : 2020-09-03
< Typhoon 202008 2020 Season Typhoon 202010 >

Help